Grass Valley, CA

4:02 AM PST on January 18, 2018 (GMT -0800)
Grass Valley

Weather History for KGOO - January, 2014

Change the Weather History Date:

Sunday, January 19, 2014

  Actual Average (KAUN) Record (KAUN)
Temperature  
Mean Temperature 60 °F -  
Max Temperature 66 °F 56 °F 72 °F (1976)
Min Temperature 53 °F 37 °F 28 °F (1961)
Degree Days  
Heating Degree Days 6    
Growing Degree Days 10 (Base 50)    
Moisture  
Dew Point 19 °F    
Average Humidity 22    
Maximum Humidity 41    
Minimum Humidity 11    
Precipitation  
Precipitation 0.00 in - - ()
Sea Level Pressure  
Sea Level Pressure 30.17 in    
Wind  
Wind Speed 2 mph (ESE)    
Max Wind Speed 7 mph    
Max Gust Speed -    
Visibility 10 miles    
Events      
Averages and records for this station are not official NWS values.
T = Trace of Precipitation, MM = Missing Value Source: NWS Daily Summary

Daily Weather History Graph

Daily Weather History Graph

Search for Another Location

Airport or City:

Trip Planner

Search our weather history database for the weather conditions in past years. The results will help you decide how hot, cold, wet, or windy it might be!

Date:

Astronomy

Jan. 19, 2014 Rise Set
Actual Time 7:20 AM PST 5:09 PM PST
Civil Twilight 6:50 AM PST 5:38 PM PST
Nautical Twilight 6:18 AM PST 6:11 PM PST
Astronomical Twilight 5:46 AM PST 6:43 PM PST
Moon 8:51 PM PST (1/19) 8:54 AM PST (1/19)
Length of Visible Light 10h 48m
Length of Day
9h 49m
Waning Gibbous, 89% of the Moon is Illuminated
Jan 19
Waning Gibbous
Jan 23
Last Quarter
Jan 30
New
Feb 6
First Quarter
Feb 14
Full

Hourly Weather History & Observations

Time (PST) Temp. Dew Point Humidity Pressure Visibility Wind Dir Wind Speed Gust Speed Precip Events Conditions
12:00 AM 55.4 °F 21.2 °F 26% 30.17 in 10.0 mi Calm Calm - N/A   Clear
12:20 AM 55.4 °F 19.4 °F 25% 30.16 in 10.0 mi Calm Calm - N/A   Clear
12:40 AM 57.2 °F 19.4 °F 23% 30.16 in 10.0 mi ESE 4.6 mph - N/A   Clear
1:00 AM 55.4 °F 19.4 °F 25% 30.16 in 10.0 mi Calm Calm - N/A   Clear
1:20 AM 53.6 °F 19.4 °F 26% 30.16 in 10.0 mi Calm Calm - N/A   Clear
1:40 AM 55.4 °F 19.4 °F 25% 30.16 in 10.0 mi Calm Calm - N/A   Clear
2:00 AM 55.4 °F 19.4 °F 25% 30.16 in 10.0 mi Calm Calm - N/A   Clear
2:20 AM 53.6 °F 19.4 °F 26% 30.16 in 10.0 mi Calm Calm - N/A   Clear
2:40 AM 57.2 °F 17.6 °F 21% 30.16 in 10.0 mi Calm Calm - N/A   Clear
3:00 AM 53.6 °F 17.6 °F 24% 30.16 in 10.0 mi ESE 4.6 mph - N/A   Clear
3:20 AM 53.6 °F 17.6 °F 24% 30.16 in 10.0 mi ESE 3.5 mph - N/A   Clear
3:40 AM 55.4 °F 17.6 °F 23% 30.16 in 10.0 mi ESE 4.6 mph - N/A   Clear
4:00 AM 55.4 °F 17.6 °F 23% 30.16 in 10.0 mi ESE 4.6 mph - N/A   Clear
4:20 AM 55.4 °F 15.8 °F 21% 30.15 in 10.0 mi East 5.8 mph - N/A   Clear
4:40 AM 55.4 °F 15.8 °F 21% 30.15 in 10.0 mi East 6.9 mph - N/A   Clear
5:00 AM 57.2 °F 15.8 °F 20% 30.15 in 10.0 mi East 5.8 mph - N/A   Clear
5:20 AM 57.2 °F 15.8 °F 20% 30.15 in 10.0 mi ESE 4.6 mph - N/A   Clear
5:40 AM 55.4 °F 15.8 °F 21% 30.15 in 10.0 mi Calm Calm - N/A   Clear
6:00 AM 55.4 °F 15.8 °F 21% 30.16 in 10.0 mi Calm Calm - N/A   Clear
6:20 AM 53.6 °F 14.0 °F 21% 30.16 in 10.0 mi Calm Calm - N/A   Clear
6:40 AM 55.4 °F 14.0 °F 20% 30.17 in 10.0 mi ESE 3.5 mph - N/A   Clear
7:00 AM 55.4 °F 14.0 °F 20% 30.17 in 10.0 mi ESE 3.5 mph - N/A   Clear
7:20 AM 55.4 °F 14.0 °F 20% 30.17 in 10.0 mi ESE 3.5 mph - N/A   Clear
7:40 AM 57.2 °F 10.4 °F 16% 30.17 in 10.0 mi ESE 5.8 mph - N/A   Clear
8:00 AM 57.2 °F 12.2 °F 17% 30.17 in 10.0 mi ESE 5.8 mph - N/A   Clear
8:20 AM 57.2 °F 12.2 °F 17% 30.18 in 10.0 mi ESE 4.6 mph - N/A   Clear
8:40 AM 59.0 °F 14.0 °F 17% 30.18 in 10.0 mi ESE 3.5 mph - N/A   Clear
9:00 AM 57.2 °F 23.0 °F 27% 30.19 in 10.0 mi Calm Calm - N/A   Clear
9:20 AM 59.0 °F 19.4 °F 22% 30.19 in 10.0 mi SE 3.5 mph - N/A   Clear
9:40 AM 62.6 °F 19.4 °F 19% 30.20 in 10.0 mi Calm Calm - N/A   Clear
10:00 AM 62.6 °F 17.6 °F 18% 30.20 in 10.0 mi Calm Calm - N/A   Clear
10:20 AM 62.6 °F 15.8 °F 16% 30.21 in 10.0 mi SSE 3.5 mph - N/A   Clear
10:40 AM 62.6 °F 17.6 °F 18% 30.21 in 10.0 mi Calm Calm - N/A   Clear
11:00 AM 64.4 °F 17.6 °F 16% 30.21 in 10.0 mi Calm Calm - N/A   Clear
11:20 AM 64.4 °F 17.6 °F 16% 30.20 in 10.0 mi Calm Calm - N/A   Clear
11:40 AM 66.2 °F 17.6 °F 15% 30.19 in 10.0 mi South 3.5 mph - N/A   Clear
12:00 PM 66.2 °F 17.6 °F 15% 30.18 in 10.0 mi Calm Calm - N/A   Clear
12:20 PM 66.2 °F 17.6 °F 15% 30.18 in 10.0 mi WSW 4.6 mph - N/A   Clear
12:40 PM 66.2 °F 15.8 °F 14% 30.17 in 10.0 mi Calm Calm - N/A   Clear
1:00 PM 64.4 °F 14.0 °F 14% 30.16 in 10.0 mi Calm Calm - N/A   Clear
1:20 PM 66.2 °F 14.0 °F 13% 30.16 in 10.0 mi South 3.5 mph - N/A   Clear
1:40 PM 66.2 °F 12.2 °F 12% 30.15 in 10.0 mi SSW 4.6 mph - N/A   Clear
2:00 PM 66.2 °F 10.4 °F 11% 30.15 in 10.0 mi Calm Calm - N/A   Clear
2:20 PM 66.2 °F 14.0 °F 13% 30.14 in 10.0 mi Calm Calm - N/A   Clear
2:40 PM 66.2 °F 17.6 °F 15% 30.14 in 10.0 mi Calm Calm - N/A   Clear
3:00 PM 66.2 °F 17.6 °F 15% 30.15 in 10.0 mi SW 3.5 mph - N/A   Clear
3:20 PM 66.2 °F 17.6 °F 15% 30.15 in 10.0 mi Calm Calm - N/A   Clear
3:40 PM 66.2 °F 26.6 °F 23% 30.15 in 10.0 mi WNW 5.8 mph - N/A   Clear
4:00 PM 64.4 °F 26.6 °F 24% 30.15 in 10.0 mi NW 5.8 mph - N/A   Clear
4:20 PM 64.4 °F 28.4 °F 26% 30.14 in 10.0 mi Calm Calm - N/A   Clear
4:40 PM 62.6 °F 28.4 °F 27% 30.15 in 10.0 mi Calm Calm - N/A   Clear
5:00 PM 60.8 °F 30.2 °F 31% 30.15 in 10.0 mi Calm Calm - N/A   Clear
5:20 PM 57.2 °F 30.2 °F 36% 30.15 in 10.0 mi Calm Calm - N/A   Clear
5:40 PM 55.4 °F 32.0 °F 41% 30.15 in 10.0 mi Calm Calm - N/A   Clear
6:00 PM 55.4 °F 28.4 °F 36% 30.15 in 10.0 mi NE 3.5 mph - N/A   Clear
6:20 PM 57.2 °F 26.6 °F 31% 30.15 in 10.0 mi Calm Calm - N/A   Clear
6:40 PM 57.2 °F 26.6 °F 31% 30.16 in 10.0 mi Calm Calm - N/A   Clear
7:00 PM 55.4 °F 26.6 °F 33% 30.16 in 10.0 mi Calm Calm - N/A   Clear
7:20 PM 53.6 °F 26.6 °F 35% 30.16 in 10.0 mi Calm Calm - N/A   Clear
7:40 PM 55.4 °F 26.6 °F 33% 30.16 in 10.0 mi Calm Calm - N/A   Clear
8:00 PM 55.4 °F 24.8 °F 31% 30.17 in 10.0 mi Calm Calm - N/A   Clear
8:20 PM 55.4 °F 24.8 °F 31% 30.17 in 10.0 mi Calm Calm - N/A   Clear
8:40 PM 55.4 °F 24.8 °F 31% 30.17 in 10.0 mi Calm Calm - N/A   Clear
9:00 PM 55.4 °F 19.4 °F 25% 30.18 in 10.0 mi Calm Calm - N/A   Clear
9:20 PM 55.4 °F 17.6 °F 23% 30.18 in 10.0 mi Calm Calm - N/A   Clear
9:40 PM 55.4 °F 17.6 °F 23% 30.18 in 10.0 mi Calm Calm - N/A   Clear
10:00 PM 55.4 °F 17.6 °F 23% 30.19 in 10.0 mi Calm Calm - N/A   Clear
10:20 PM 55.4 °F 15.8 °F 21% 30.19 in 10.0 mi Calm Calm - N/A   Clear
10:40 PM 57.2 °F 14.0 °F 18% 30.19 in 10.0 mi Calm Calm - N/A   Clear
11:00 PM 55.4 °F 10.4 °F 17% 30.19 in 10.0 mi East 5.8 mph - N/A   Clear
11:20 PM 57.2 °F 8.6 °F 14% 30.19 in 10.0 mi East 4.6 mph - N/A   Clear
11:40 PM 57.2 °F 6.8 °F 13% 30.19 in 10.0 mi Calm Calm - N/A   Clear